createdAt,value
2018-11-25T00:01:01.263Z,23.20
2018-11-25T00:03:28.212Z,21.53
2018-11-25T00:05:55.768Z,25.43
2018-11-25T00:08:22.821Z,20.43
2018-11-25T00:10:49.762Z,23.00
2018-11-25T00:13:16.821Z,23.77
2018-11-25T00:15:43.859Z,24.77
2018-11-25T00:18:10.910Z,24.10
2018-11-25T00:20:37.961Z,23.83
2018-11-25T00:23:05.008Z,23.17
2018-11-25T00:25:32.976Z,24.33
2018-11-25T00:28:00.030Z,26.57
2018-11-25T00:30:27.072Z,25.50
2018-11-25T00:32:55.659Z,25.90
2018-11-25T00:35:22.810Z,23.20
2018-11-25T00:37:49.754Z,23.23
2018-11-25T00:40:18.032Z,25.27
2018-11-25T00:42:45.085Z,27.30
2018-11-25T00:45:12.128Z,23.43
2018-11-25T00:47:40.248Z,17.97
2018-11-25T00:50:07.351Z,21.50
2018-11-25T00:52:34.400Z,20.90
2018-11-25T00:55:02.524Z,21.40
2018-11-25T00:57:29.471Z,23.03
2018-11-25T00:59:56.682Z,20.97
2018-11-25T01:02:24.336Z,18.07
2018-11-25T01:04:51.387Z,23.33
2018-11-25T01:07:18.488Z,22.03
2018-11-25T01:09:45.480Z,23.70
2018-11-25T01:12:12.528Z,20.33
2018-11-25T01:14:39.583Z,21.30
2018-11-25T01:17:06.626Z,25.47
2018-11-25T01:19:33.676Z,23.47
2018-11-25T01:22:00.728Z,24.27
2018-11-25T01:24:27.772Z,26.83
2018-11-25T01:26:54.821Z,24.53
2018-11-25T01:29:21.878Z,26.63
2018-11-25T01:31:48.918Z,24.73
2018-11-25T01:34:15.967Z,26.73
2018-11-25T01:36:43.022Z,27.33
2018-11-25T01:39:10.064Z,26.43
2018-11-25T01:41:37.014Z,28.47
2018-11-25T01:44:04.063Z,24.30
2018-11-25T01:46:31.623Z,31.73
2018-11-25T01:48:58.666Z,23.90
2018-11-25T01:51:25.716Z,21.40
2018-11-25T01:53:52.770Z,20.40
2018-11-25T01:56:19.813Z,21.03
2018-11-25T01:58:46.862Z,20.70
2018-11-25T02:01:15.548Z,21.20
2018-11-25T02:03:42.603Z,17.30
2018-11-25T02:06:09.650Z,16.37
2018-11-25T02:08:37.000Z,15.50
2018-11-25T02:11:04.110Z,13.70
2018-11-25T02:13:31.099Z,13.73
2018-11-25T02:15:58.454Z,13.87
2018-11-25T02:18:25.401Z,14.53
2018-11-25T02:20:52.968Z,15.53
2018-11-25T02:23:20.012Z,16.30
2018-11-25T02:25:47.062Z,15.07
2018-11-25T02:28:14.122Z,15.30
2018-11-25T02:30:41.158Z,16.20
2018-11-25T02:33:08.823Z,16.40
2018-11-25T02:35:35.875Z,17.17
2018-11-25T02:38:04.562Z,15.37
2018-11-25T02:40:31.604Z,15.37
2018-11-25T02:42:58.556Z,16.80
2018-11-25T02:45:27.337Z,16.40
2018-11-25T02:47:54.392Z,15.30
2018-11-25T02:50:21.435Z,16.30
2018-11-25T02:52:48.483Z,16.63
2018-11-25T02:55:15.634Z,16.57
2018-11-25T02:57:42.688Z,18.07
2018-11-25T03:00:09.732Z,15.63
2018-11-25T03:02:36.702Z,16.90
2018-11-25T03:05:03.834Z,17.20
2018-11-25T03:07:31.081Z,16.97
2018-11-25T03:09:58.155Z,16.93
2018-11-25T03:12:25.179Z,16.73
2018-11-25T03:14:52.227Z,16.40
2018-11-25T03:17:19.283Z,15.53
2018-11-25T03:19:46.324Z,20.27
2018-11-25T03:22:13.372Z,17.10
2018-11-25T03:24:40.431Z,16.97
2018-11-25T03:27:07.473Z,19.47
2018-11-25T03:29:34.519Z,16.40
2018-11-25T03:32:03.308Z,17.43
2018-11-25T03:34:30.356Z,16.40
2018-11-25T03:36:57.438Z,15.70
2018-11-25T03:39:24.455Z,16.27
2018-11-25T03:41:51.503Z,16.87
2018-11-25T03:44:18.558Z,15.83
2018-11-25T03:46:45.601Z,16.47
2018-11-25T03:49:12.652Z,15.73
2018-11-25T03:51:39.701Z,13.03
2018-11-25T03:54:08.130Z,13.23
2018-11-25T03:56:35.125Z,11.77
2018-11-25T03:59:02.173Z,11.13
2018-11-25T04:01:29.233Z,11.43
2018-11-25T04:03:56.270Z,11.67
2018-11-25T04:06:23.269Z,10.70
2018-11-25T04:08:50.469Z,10.53
2018-11-25T04:11:17.524Z,11.87
2018-11-25T04:13:45.182Z,11.67
2018-11-25T04:16:12.230Z,12.33
2018-11-25T04:18:39.283Z,12.80
2018-11-25T04:21:06.225Z,12.20
2018-11-25T04:23:33.279Z,11.67
2018-11-25T04:26:00.323Z,11.13
2018-11-25T04:28:27.320Z,11.23
2018-11-25T04:30:54.731Z,11.87
2018-11-25T04:33:21.774Z,11.47
2018-11-25T04:35:48.777Z,11.60
2018-11-25T04:38:17.306Z,12.73
2018-11-25T04:40:44.354Z,12.17
2018-11-25T04:43:11.408Z,10.50
2018-11-25T04:45:38.452Z,11.13
2018-11-25T04:48:05.341Z,10.70
2018-11-25T04:50:32.344Z,10.33
2018-11-25T04:52:59.645Z,10.93
2018-11-25T04:55:26.645Z,11.00
2018-11-25T04:57:53.698Z,10.93
2018-11-25T05:00:20.746Z,10.90
2018-11-25T05:02:47.793Z,10.27
2018-11-25T05:05:14.854Z,10.57
2018-11-25T05:07:41.889Z,11.23
2018-11-25T05:10:08.937Z,10.00
2018-11-25T05:12:35.994Z,10.27
2018-11-25T05:15:03.035Z,9.20
2018-11-25T05:17:30.256Z,9.10
2018-11-25T05:19:57.142Z,8.37
2018-11-25T05:22:24.185Z,8.23
2018-11-25T05:24:51.229Z,9.13
2018-11-25T05:27:18.176Z,7.70
2018-11-25T05:29:45.226Z,8.00
2018-11-25T05:32:12.174Z,7.50
2018-11-25T05:34:39.218Z,6.77
2018-11-25T05:37:06.274Z,7.83
2018-11-25T05:39:33.314Z,7.03
2018-11-25T05:42:00.364Z,6.50
2018-11-25T05:44:27.427Z,11.73
2018-11-25T05:46:54.462Z,9.47
2018-11-25T05:49:21.508Z,5.77
2018-11-25T05:51:50.503Z,6.17
2018-11-25T05:54:17.556Z,6.23
2018-11-25T05:56:44.599Z,5.57
2018-11-25T05:59:11.649Z,6.37
2018-11-25T06:01:39.009Z,8.37
2018-11-25T06:04:06.054Z,6.20
2018-11-25T06:06:33.203Z,8.80
2018-11-25T06:09:00.663Z,18.17
2018-11-25T06:11:27.710Z,6.10
2018-11-25T06:13:54.766Z,5.77
2018-11-25T06:16:21.807Z,5.10
2018-11-25T06:18:48.856Z,5.27
2018-11-25T06:21:15.910Z,4.80
2018-11-25T06:23:44.696Z,4.83
2018-11-25T06:26:11.747Z,4.97
2018-11-25T06:28:38.791Z,4.70
2018-11-25T06:31:05.838Z,4.87
2018-11-25T06:33:32.730Z,4.90
2018-11-25T06:35:59.737Z,4.80
2018-11-25T06:38:26.782Z,4.77
2018-11-25T06:40:53.831Z,4.50
2018-11-25T06:43:20.884Z,4.50
2018-11-25T06:45:47.925Z,4.40
2018-11-25T06:48:14.975Z,4.67
2018-11-25T06:50:42.739Z,3.90
2018-11-25T06:53:09.732Z,4.07
2018-11-25T06:55:36.734Z,3.63
2018-11-25T06:58:03.788Z,3.80
2018-11-25T07:00:30.832Z,4.00
2018-11-25T07:02:57.879Z,3.70
2018-11-25T07:05:24.935Z,4.43
2018-11-25T07:07:51.981Z,3.80
2018-11-25T07:10:19.026Z,4.00
2018-11-25T07:12:46.079Z,3.70
2018-11-25T07:15:13.122Z,4.10
2018-11-25T07:17:40.174Z,4.10
2018-11-25T07:20:07.226Z,5.80
2018-11-25T07:22:34.268Z,3.80
2018-11-25T07:25:01.932Z,4.10
2018-11-25T07:27:28.986Z,3.83
2018-11-25T07:29:57.672Z,3.87
2018-11-25T07:32:24.659Z,4.10
2018-11-25T07:34:51.671Z,3.70
2018-11-25T07:37:18.712Z,4.03
2018-11-25T07:39:46.168Z,4.00
2018-11-25T07:42:13.426Z,4.10
2018-11-25T07:44:40.479Z,3.63
2018-11-25T07:47:07.520Z,4.13
2018-11-25T07:49:34.573Z,4.17
2018-11-25T07:52:01.560Z,4.90
2018-11-25T07:54:28.570Z,8.07
2018-11-25T07:56:55.610Z,7.93
2018-11-25T07:59:22.659Z,6.47
2018-11-25T08:01:49.659Z,4.80
2018-11-25T08:04:16.654Z,5.10
2018-11-25T08:06:44.892Z,14.10
2018-11-25T08:09:11.878Z,3.80
2018-11-25T08:11:39.745Z,4.37
2018-11-25T08:14:06.697Z,4.23
2018-11-25T08:16:33.641Z,4.53
2018-11-25T08:19:00.693Z,4.27
2018-11-25T08:21:27.734Z,4.80
2018-11-25T08:23:54.786Z,4.30
2018-11-25T08:26:21.734Z,3.93
2018-11-25T08:28:48.779Z,4.10
2018-11-25T08:31:16.449Z,4.20
2018-11-25T08:33:43.489Z,5.27
2018-11-25T08:36:11.458Z,4.60
2018-11-25T08:38:38.406Z,5.03
2018-11-25T08:41:05.456Z,5.13
2018-11-25T08:43:32.510Z,6.03
2018-11-25T08:45:59.555Z,5.30
2018-11-25T08:48:28.677Z,5.80
2018-11-25T08:50:55.698Z,7.23
2018-11-25T08:53:22.743Z,8.00
2018-11-25T08:55:49.738Z,7.07
2018-11-25T08:58:16.848Z,5.00
2018-11-25T09:00:43.891Z,5.17
2018-11-25T09:03:10.944Z,4.70
2018-11-25T09:05:37.988Z,4.80
2018-11-25T09:08:05.036Z,4.40
2018-11-25T09:10:32.091Z,5.73
2018-11-25T09:12:59.241Z,4.50
2018-11-25T09:15:27.103Z,5.10
2018-11-25T09:17:54.307Z,5.13
2018-11-25T09:20:21.414Z,5.07
2018-11-25T09:22:48.765Z,6.10
2018-11-25T09:25:15.809Z,13.37
2018-11-25T09:27:42.860Z,10.10
2018-11-25T09:30:10.930Z,6.83
2018-11-25T09:32:37.984Z,4.83
2018-11-25T09:35:05.028Z,4.93
2018-11-25T09:37:34.226Z,3.40
2018-11-25T09:40:03.536Z,3.53
2018-11-25T09:42:30.581Z,2.97
2018-11-25T09:44:57.932Z,2.70
2018-11-25T09:47:24.980Z,3.20
2018-11-25T09:49:52.034Z,3.03
2018-11-25T09:52:19.077Z,3.67
2018-11-25T09:54:46.127Z,4.83
2018-11-25T09:57:13.179Z,3.73
2018-11-25T09:59:40.224Z,6.80
2018-11-25T10:02:07.578Z,3.67
2018-11-25T10:04:36.651Z,3.43
2018-11-25T10:07:04.645Z,3.03
2018-11-25T10:09:31.644Z,3.17
2018-11-25T10:11:58.615Z,3.27
2018-11-25T10:14:25.586Z,3.20
2018-11-25T10:16:52.634Z,3.00
2018-11-25T10:19:20.401Z,3.43
2018-11-25T10:21:47.961Z,3.00
2018-11-25T10:24:15.009Z,2.83
2018-11-25T10:26:42.064Z,2.40
2018-11-25T10:29:09.620Z,3.00
2018-11-25T10:31:36.671Z,2.40
2018-11-25T10:34:03.718Z,2.47
2018-11-25T10:36:30.764Z,2.17
2018-11-25T10:38:57.817Z,2.53
2018-11-25T10:41:24.861Z,2.00
2018-11-25T10:43:52.626Z,2.30
2018-11-25T10:46:19.676Z,2.40
2018-11-25T10:48:46.730Z,4.40
2018-11-25T10:51:15.821Z,2.67
2018-11-25T10:53:42.766Z,2.37
2018-11-25T10:56:09.838Z,2.90
2018-11-25T10:58:36.869Z,1.90
2018-11-25T11:01:04.019Z,2.30
2018-11-25T11:03:31.582Z,2.33
2018-11-25T11:06:00.057Z,2.40
2018-11-25T11:08:27.107Z,3.77
2018-11-25T11:10:54.159Z,2.90
2018-11-25T11:13:22.546Z,2.50
2018-11-25T11:15:49.802Z,3.00
2018-11-25T11:18:16.843Z,2.60
2018-11-25T11:20:43.889Z,2.23
2018-11-25T11:23:10.935Z,2.20
2018-11-25T11:25:37.988Z,2.03
2018-11-25T11:28:05.283Z,2.03
2018-11-25T11:30:32.299Z,2.17
2018-11-25T11:32:59.286Z,2.60
2018-11-25T11:35:26.788Z,2.13
2018-11-25T11:37:53.842Z,2.53
2018-11-25T11:40:25.468Z,2.07
2018-11-25T11:42:52.545Z,2.30
2018-11-25T11:45:19.592Z,2.10
2018-11-25T11:47:46.668Z,2.27
2018-11-25T11:50:14.508Z,2.47
2018-11-25T11:52:43.195Z,2.20
2018-11-25T11:55:10.250Z,2.40
2018-11-25T11:57:37.192Z,2.17
2018-11-25T12:00:04.287Z,2.33
2018-11-25T12:02:31.683Z,2.60
2018-11-25T12:05:04.076Z,2.50
2018-11-25T12:07:31.226Z,2.70
2018-11-25T12:09:58.273Z,2.53
2018-11-25T12:12:25.318Z,2.80
2018-11-25T12:14:52.373Z,2.70
2018-11-25T12:17:19.426Z,2.67
2018-11-25T12:19:46.379Z,2.40
2018-11-25T12:22:13.410Z,2.60
2018-11-25T12:24:40.459Z,2.60
2018-11-25T12:27:07.515Z,2.70
2018-11-25T12:29:34.556Z,2.80
2018-11-25T12:32:01.605Z,2.50
2018-11-25T12:34:28.659Z,2.90
2018-11-25T12:36:55.744Z,2.90
2018-11-25T12:39:28.336Z,2.97
2018-11-25T12:41:49.923Z,3.10
2018-11-25T12:44:16.953Z,3.20
2018-11-25T12:46:43.997Z,3.33
2018-11-25T12:49:11.046Z,3.40
2018-11-25T12:51:40.042Z,3.10
2018-11-25T12:54:07.094Z,3.47
2018-11-25T12:56:34.138Z,3.40
2018-11-25T12:59:01.091Z,3.10
2018-11-25T13:01:28.132Z,3.23
2018-11-25T13:03:55.131Z,2.97
2018-11-25T13:06:22.285Z,3.60
2018-11-25T13:08:49.278Z,2.97
2018-11-25T13:11:16.329Z,3.57
2018-11-25T13:13:43.314Z,3.77
2018-11-25T13:16:10.322Z,3.73
2018-11-25T13:18:37.375Z,3.70
2018-11-25T13:21:04.419Z,3.17
2018-11-25T13:23:31.467Z,3.63
2018-11-25T13:25:58.521Z,3.40
2018-11-25T13:28:25.563Z,3.53
2018-11-25T13:30:52.612Z,3.43
2018-11-25T13:33:19.558Z,2.80
2018-11-25T13:35:46.710Z,3.60
2018-11-25T13:38:15.703Z,3.37
2018-11-25T13:40:43.470Z,3.10
2018-11-25T13:43:10.528Z,3.40
2018-11-25T13:45:37.571Z,3.10
2018-11-25T13:48:04.618Z,3.03
2018-11-25T13:50:31.718Z,3.20
2018-11-25T13:52:58.716Z,3.30
2018-11-25T13:55:25.760Z,3.03
2018-11-25T13:57:55.796Z,3.10
2018-11-25T14:00:23.549Z,3.30
2018-11-25T14:02:50.491Z,3.30
2018-11-25T14:05:17.548Z,3.50
2018-11-25T14:07:44.591Z,3.10
2018-11-25T14:10:12.353Z,3.37
2018-11-25T14:12:42.523Z,3.23
2018-11-25T14:15:10.082Z,2.90
2018-11-25T14:17:37.085Z,3.27
2018-11-25T14:20:04.141Z,3.13
2018-11-25T14:22:31.740Z,2.80
2018-11-25T14:24:58.752Z,3.10
2018-11-25T14:27:26.818Z,3.43
2018-11-25T14:29:53.862Z,3.22
2018-11-25T14:32:20.910Z,3.27
2018-11-25T14:34:50.090Z,3.05
2018-11-25T14:37:17.464Z,3.00
2018-11-25T14:39:44.616Z,3.43
2018-11-25T14:42:11.665Z,3.80
2018-11-25T14:44:38.754Z,3.12
2018-11-25T14:47:07.298Z,3.22
2018-11-25T14:49:36.804Z,2.90
2018-11-25T14:52:03.861Z,3.25
2018-11-25T14:54:30.903Z,3.00
2018-11-25T14:56:58.891Z,2.95
2018-11-25T14:59:26.337Z,4.18
2018-11-25T15:01:54.615Z,4.70
2018-11-25T15:04:21.660Z,3.10
2018-11-25T15:06:48.704Z,3.45
2018-11-25T15:09:15.760Z,3.80
2018-11-25T15:11:42.803Z,3.67
2018-11-25T15:14:11.420Z,4.00
2018-11-25T15:16:41.473Z,3.85
2018-11-25T15:19:15.682Z,5.73
2018-11-25T15:21:48.864Z,4.90
2018-11-25T15:24:15.145Z,4.85
2018-11-25T15:26:42.194Z,6.43
2018-11-25T15:29:09.258Z,6.68
2018-11-25T15:31:37.061Z,7.80
2018-11-25T15:34:05.700Z,6.32
2018-11-25T15:36:34.536Z,7.47
2018-11-25T15:39:01.944Z,5.95
2018-11-25T15:41:28.997Z,5.97
2018-11-25T15:43:56.762Z,4.20
2018-11-25T15:46:24.528Z,3.92
2018-11-25T15:48:51.572Z,3.40
2018-11-25T15:51:19.140Z,3.40
2018-11-25T15:53:47.395Z,3.70
2018-11-25T15:56:14.461Z,3.40
2018-11-25T15:58:45.001Z,3.33
2018-11-25T16:01:13.224Z,3.45
2018-11-25T16:03:40.211Z,3.15
2018-11-25T16:06:07.280Z,2.97
2018-11-25T16:08:38.330Z,3.67
2018-11-25T16:11:04.533Z,4.05
2018-11-25T16:13:32.012Z,3.00
2018-11-25T16:15:59.037Z,3.35
2018-11-25T16:18:26.291Z,3.72
2018-11-25T16:20:55.490Z,3.17
2018-11-25T16:23:27.252Z,4.75
2018-11-25T16:25:54.506Z,4.95
2018-11-25T16:28:23.089Z,6.32
2018-11-25T16:30:50.079Z,3.20
2018-11-25T16:33:18.927Z,6.30
2018-11-25T16:35:50.379Z,35.65
2018-11-25T16:38:19.889Z,5.72
2018-11-25T16:40:49.084Z,8.60
2018-11-25T16:43:19.846Z,4.05
2018-11-25T16:45:49.073Z,4.82
2018-11-25T16:48:16.127Z,4.10
2018-11-25T16:50:48.452Z,5.12
2018-11-25T16:53:18.918Z,3.45
2018-11-25T16:55:47.044Z,3.60
2018-11-25T16:58:15.224Z,5.87
2018-11-25T17:00:45.547Z,6.50
2018-11-25T17:03:13.213Z,7.10
2018-11-25T17:05:40.256Z,7.60
2018-11-25T17:08:07.517Z,4.70
2018-11-25T17:10:34.460Z,6.70
2018-11-25T17:13:01.511Z,5.43
2018-11-25T17:15:28.503Z,6.53
2018-11-25T17:17:55.601Z,4.72
2018-11-25T17:20:22.655Z,5.53
2018-11-25T17:22:49.696Z,5.53
2018-11-25T17:25:16.747Z,24.87
2018-11-25T17:27:43.801Z,8.50
2018-11-25T17:30:10.766Z,5.57
2018-11-25T17:32:37.796Z,4.15
2018-11-25T17:35:04.838Z,3.78
2018-11-25T17:37:32.402Z,3.85
2018-11-25T17:40:00.171Z,3.10
2018-11-25T17:42:27.110Z,9.00
2018-11-25T17:44:54.165Z,4.85
2018-11-25T17:47:21.316Z,5.12
2018-11-25T17:49:48.469Z,5.47
2018-11-25T17:52:15.509Z,4.93
2018-11-25T17:54:44.096Z,6.93
2018-11-25T17:57:11.149Z,7.15
2018-11-25T17:59:39.528Z,7.45
2018-11-25T18:02:06.781Z,6.97
2018-11-25T18:04:34.138Z,10.48
2018-11-25T18:07:03.404Z,13.95
2018-11-25T18:09:30.485Z,8.95
2018-11-25T18:11:58.354Z,6.47
2018-11-25T18:14:25.706Z,6.90
2018-11-25T18:16:53.584Z,6.57
2018-11-25T18:19:21.441Z,6.47
2018-11-25T18:21:51.136Z,5.75
2018-11-25T18:24:18.155Z,7.28
2018-11-25T18:26:45.565Z,5.75
2018-11-25T18:29:12.605Z,6.15
2018-11-25T18:31:39.671Z,5.37
2018-11-25T18:34:08.247Z,5.85
2018-11-25T18:36:35.287Z,5.28
2018-11-25T18:39:02.644Z,5.15
2018-11-25T18:41:29.636Z,6.18
2018-11-25T18:43:56.638Z,5.70
2018-11-25T18:46:23.695Z,6.00
2018-11-25T18:48:50.735Z,11.52
2018-11-25T18:51:17.784Z,9.35
2018-11-25T18:53:44.774Z,7.45
2018-11-25T18:56:11.827Z,5.93
2018-11-25T18:58:38.833Z,6.62
2018-11-25T19:01:05.876Z,5.65
2018-11-25T19:03:32.926Z,5.68
2018-11-25T19:05:59.873Z,5.30
2018-11-25T19:08:26.869Z,6.10
2018-11-25T19:10:53.869Z,6.15
2018-11-25T19:13:20.914Z,5.07
2018-11-25T19:15:48.890Z,6.90
2018-11-25T19:18:15.934Z,8.13
2018-11-25T19:20:43.196Z,5.70
2018-11-25T19:23:11.771Z,4.85
2018-11-25T19:25:38.821Z,6.00
2018-11-25T19:28:05.874Z,5.07
2018-11-25T19:30:33.226Z,6.85
2018-11-25T19:33:00.273Z,6.47
2018-11-25T19:35:27.327Z,7.80
2018-11-25T19:37:54.371Z,11.43
2018-11-25T19:40:21.419Z,9.95
2018-11-25T19:42:48.473Z,9.82
2018-11-25T19:45:15.517Z,9.80
2018-11-25T19:47:45.023Z,10.77
2018-11-25T19:50:14.427Z,9.75
2018-11-25T19:52:41.477Z,9.73
2018-11-25T19:55:09.348Z,9.65
2018-11-25T19:57:37.011Z,9.25
2018-11-25T20:00:05.183Z,9.70
2018-11-25T20:02:32.233Z,9.45
2018-11-25T20:04:59.285Z,10.05
2018-11-25T20:07:26.942Z,9.57
2018-11-25T20:09:55.524Z,9.65
2018-11-25T20:12:24.471Z,10.02
2018-11-25T20:14:53.309Z,10.65
2018-11-25T20:17:28.039Z,11.12
2018-11-25T20:19:56.112Z,10.43
2018-11-25T20:22:23.876Z,10.35
2018-11-25T20:24:51.131Z,11.18
2018-11-25T20:27:18.589Z,11.90
2018-11-25T20:29:45.639Z,12.35
2018-11-25T20:32:15.139Z,17.17
2018-11-25T20:34:43.777Z,12.13
2018-11-25T20:37:10.779Z,11.48
2018-11-25T20:39:37.831Z,11.63
2018-11-25T20:42:04.981Z,10.80
2018-11-25T20:44:32.028Z,11.30
2018-11-25T20:47:06.042Z,11.15
2018-11-25T20:49:33.392Z,11.00
2018-11-25T20:52:02.442Z,10.93
2018-11-25T20:54:31.184Z,9.60
2018-11-25T20:56:58.224Z,10.18
2018-11-25T20:59:25.283Z,12.57
2018-11-25T21:01:52.943Z,12.27
2018-11-25T21:04:20.706Z,18.62
2018-11-25T21:06:48.575Z,34.20
2018-11-25T21:09:16.028Z,49.95
2018-11-25T21:11:43.082Z,15.75
2018-11-25T21:14:15.121Z,17.08
2018-11-25T21:16:42.853Z,30.92
2018-11-25T21:19:10.161Z,15.05
2018-11-25T21:21:37.722Z,16.12
2018-11-25T21:24:04.776Z,17.95
2018-11-25T21:26:31.825Z,12.73
2018-11-25T21:28:58.868Z,11.43
2018-11-25T21:31:25.916Z,11.57
2018-11-25T21:33:53.375Z,10.35
2018-11-25T21:36:21.352Z,11.50
2018-11-25T21:38:48.394Z,10.95
2018-11-25T21:41:15.443Z,10.63
2018-11-25T21:43:42.496Z,11.43
2018-11-25T21:46:09.541Z,10.10
2018-11-25T21:48:44.655Z,10.63
2018-11-25T21:51:11.700Z,10.00
2018-11-25T21:53:40.414Z,10.00
2018-11-25T21:56:07.471Z,10.75
2018-11-25T21:58:34.511Z,10.77
2018-11-25T22:01:03.096Z,9.80
2018-11-25T22:03:30.150Z,10.07
2018-11-25T22:05:57.192Z,10.77
2018-11-25T22:08:25.164Z,11.40
2018-11-25T22:10:52.217Z,12.27
2018-11-25T22:13:19.261Z,11.90
2018-11-25T22:15:46.308Z,10.25
2018-11-25T22:18:13.303Z,10.27
2018-11-25T22:20:40.514Z,9.23
2018-11-25T22:23:09.606Z,9.27
2018-11-25T22:25:36.659Z,9.02
2018-11-25T22:28:03.703Z,8.35
2018-11-25T22:30:30.580Z,8.55
2018-11-25T22:32:57.594Z,8.60
2018-11-25T22:35:24.672Z,8.35
2018-11-25T22:37:51.692Z,8.47
2018-11-25T22:40:18.746Z,8.47
2018-11-25T22:42:45.789Z,8.80
2018-11-25T22:45:12.741Z,9.13
2018-11-25T22:47:39.785Z,9.85
2018-11-25T22:50:06.836Z,9.65
2018-11-25T22:52:34.811Z,9.20
2018-11-25T22:55:02.372Z,8.90
2018-11-25T22:57:31.463Z,9.57
2018-11-25T22:59:58.513Z,9.57
2018-11-25T23:02:25.565Z,9.30
2018-11-25T23:04:58.647Z,9.53
2018-11-25T23:07:25.732Z,10.43
2018-11-25T23:09:52.643Z,8.60
2018-11-25T23:12:20.311Z,8.73
2018-11-25T23:14:47.356Z,13.43
2018-11-25T23:17:14.402Z,8.67
2018-11-25T23:19:41.456Z,8.47
2018-11-25T23:22:08.398Z,8.20
2018-11-25T23:24:35.451Z,7.63
2018-11-25T23:27:02.495Z,8.10
2018-11-25T23:29:31.321Z,8.20
2018-11-25T23:31:58.336Z,8.27
2018-11-25T23:34:25.384Z,7.97
2018-11-25T23:36:52.435Z,8.23
2018-11-25T23:39:19.479Z,8.43
2018-11-25T23:41:46.939Z,9.97
2018-11-25T23:44:13.989Z,8.47
2018-11-25T23:46:40.932Z,7.93
2018-11-25T23:49:07.981Z,7.40
2018-11-25T23:51:35.035Z,7.60
2018-11-25T23:54:02.079Z,8.40
2018-11-25T23:56:29.336Z,8.17
2018-11-25T23:58:56.378Z,8.63
